This is the latest recevied weather packets stored in our database for station/object W0AKO. If no packets are shown the sender has not sent any weather packets the latest 1 day(s).
| Time | Temp. | Humidity | Pressure | Rain* | Wind** | Luminosity | Snow |
|---|---|---|---|---|---|---|---|
| 1778044183 | 19.44° C | 10% | 1013 hPa | 0 mm | 0 m/s | 0 W/m² | - |
| 1778043881 | 19.44° C | 10% | 1013 hPa | 0 mm | 0 m/s | 0 W/m² | - |
| 1778043578 | 18.89° C | 10% | 1012.8 hPa | 0 mm | 0 m/s | 0 W/m² | - |
| 1778043274 | 18.89° C | 10% | 1013 hPa | 0 mm | 0 m/s | 0 W/m² | - |
| 1778042971 | 18.89° C | 10% | 1012.6 hPa | 0 mm | 0 m/s | 0 W/m² | - |
| 1778042670 | 18.89° C | 10% | 1012.8 hPa | 0 mm | 0.45 m/s, 210° | 0 W/m² | - |
| 1778042366 | 18.89° C | 10% | 1012.7 hPa | 0 mm | 0.89 m/s, 194° | 0 W/m² | - |
| 1778042063 | 18.89° C | 10% | 1012.6 hPa | 0 mm | 0.45 m/s, 187° | 0 W/m² | - |
| 1778041761 | 19.44° C | 10% | 1012.6 hPa | 0 mm | 0.45 m/s, 201° | 0 W/m² | - |
| 1778041460 | 19.44° C | 10% | 1012.5 hPa | 0 mm | 0 m/s | 0 W/m² | - |
| 1778041158 | 18.89° C | 10% | 1012.3 hPa | 0 mm | 0.89 m/s, 178° | 0 W/m² | - |
| 1778040855 | 18.89° C | 10% | 1012.3 hPa | 0 mm | 0.45 m/s, 176° | 0 W/m² | - |
| 1778040552 | 18.89° C | 10% | 1012.2 hPa | 0 mm | 0.89 m/s, 179° | 0 W/m² | - |
| 1778040250 | 18.89° C | 10% | 1012.3 hPa | 0 mm | 1.34 m/s, 174° | 0 W/m² | - |
| 1778039945 | 18.89° C | 10% | 1012.1 hPa | 0 mm | 0 m/s | 0 W/m² | - |
| 1778039643 | 18.89° C | 10% | 1012 hPa | 0 mm | 0 m/s | 0 W/m² | - |
| 1778039340 | 19.44° C | 10% | 1012 hPa | 0 mm | 0 m/s | 0 W/m² | - |
| 1778039037 | 19.44° C | 10% | 1011.8 hPa | 0 mm | 1.34 m/s, 208° | 0 W/m² | - |
| 1778038734 | 20° C | 10% | 1011.7 hPa | 0 mm | 1.79 m/s, 217° | 0 W/m² | - |
| 1778038431 | 20° C | 10% | 1011.7 hPa | 0 mm | 2.24 m/s, 206° | 0 W/m² | - |
| 1778038128 | 20° C | 10% | 1011.5 hPa | 0 mm | 2.24 m/s, 255° | 0 W/m² | - |
| 1778037825 | 20° C | 10% | 1011.6 hPa | 0 mm | 4.92 m/s, 242° | 0 W/m² | - |
| 1778037522 | 20° C | 10% | 1011.6 hPa | 0 mm | 2.24 m/s, 214° | 0 W/m² | - |
| 1778037219 | 20.56° C | 10% | 1011.1 hPa | 0 mm | 4.02 m/s, 253° | 0 W/m² | - |
| 1778036917 | 20.56° C | 10% | 1011.1 hPa | 0 mm | 3.58 m/s, 279° | 0 W/m² | - |
* Rain latest hour (hover to see other rain measurements)
** Current wind speed in m/s (hover to see current wind gust speed)